sensor_id;sensor_type;location;lat;lon;timestamp;pressure;altitude;pressure_sealevel;temperature;humidity
55538;BME280;41383;51.418;7.286;2023-01-26T00:01:18;100757.81;;;1.68;71.48
55538;BME280;41383;51.418;7.286;2023-01-26T00:03:45;100752.88;;;1.56;71.61
55538;BME280;41383;51.418;7.286;2023-01-26T00:06:12;100740.63;;;1.54;71.23
55538;BME280;41383;51.418;7.286;2023-01-26T00:08:45;100740.34;;;1.48;72.27
55538;BME280;41383;51.418;7.286;2023-01-26T00:11:14;100729.59;;;1.48;72.58
55538;BME280;41383;51.418;7.286;2023-01-26T00:13:40;100732.50;;;1.62;72.27
55538;BME280;41383;51.418;7.286;2023-01-26T00:16:11;100722.66;;;1.54;70.83
55538;BME280;41383;51.418;7.286;2023-01-26T00:18:38;100720.63;;;1.33;72.04
55538;BME280;41383;51.418;7.286;2023-01-26T00:21:04;100711.91;;;1.31;72.02
55538;BME280;41383;51.418;7.286;2023-01-26T00:23:31;100710.00;;;1.39;71.99
55538;BME280;41383;51.418;7.286;2023-01-26T00:25:57;100694.00;;;1.46;71.91
55538;BME280;41383;51.418;7.286;2023-01-26T00:28:22;100695.38;;;1.42;71.49
55538;BME280;41383;51.418;7.286;2023-01-26T00:30:47;100692.31;;;1.45;71.69
55538;BME280;41383;51.418;7.286;2023-01-26T00:33:13;100688.03;;;1.51;71.04
55538;BME280;41383;51.418;7.286;2023-01-26T00:35:39;100678.31;;;1.50;70.97
55538;BME280;41383;51.418;7.286;2023-01-26T00:38:11;100671.19;;;1.42;71.48
55538;BME280;41383;51.418;7.286;2023-01-26T00:40:37;100661.88;;;1.45;71.28
55538;BME280;41383;51.418;7.286;2023-01-26T00:43:03;100666.34;;;1.37;71.70
55538;BME280;41383;51.418;7.286;2023-01-26T00:45:28;100650.56;;;1.34;72.22
55538;BME280;41383;51.418;7.286;2023-01-26T00:47:53;100654.00;;;1.43;72.27
55538;BME280;41383;51.418;7.286;2023-01-26T00:50:18;100649.69;;;1.42;72.04
55538;BME280;41383;51.418;7.286;2023-01-26T00:52:44;100646.22;;;1.33;72.31
55538;BME280;41383;51.418;7.286;2023-01-26T00:55:09;100649.03;;;1.40;72.39
55538;BME280;41383;51.418;7.286;2023-01-26T00:57:34;100644.31;;;1.42;72.79
55538;BME280;41383;51.418;7.286;2023-01-26T01:00:00;100651.00;;;1.23;73.32
55538;BME280;41383;51.418;7.286;2023-01-26T01:02:25;100651.13;;;1.30;73.29
55538;BME280;41383;51.418;7.286;2023-01-26T01:04:50;100650.41;;;1.36;73.20
55538;BME280;41383;51.418;7.286;2023-01-26T01:07:15;100648.84;;;1.42;73.59
55538;BME280;41383;51.418;7.286;2023-01-26T01:09:41;100642.06;;;1.46;73.54
55538;BME280;41383;51.418;7.286;2023-01-26T01:12:06;100639.66;;;1.51;73.58
55538;BME280;41383;51.418;7.286;2023-01-26T01:14:32;100639.59;;;1.59;72.96
55538;BME280;41383;51.418;7.286;2023-01-26T01:16:57;100640.50;;;1.51;72.88
55538;BME280;41383;51.418;7.286;2023-01-26T01:19:23;100639.50;;;1.53;73.35
55538;BME280;41383;51.418;7.286;2023-01-26T01:21:48;100635.50;;;1.63;73.58
55538;BME280;41383;51.418;7.286;2023-01-26T01:24:14;100631.81;;;1.65;73.22
55538;BME280;41383;51.418;7.286;2023-01-26T01:26:39;100628.00;;;1.59;73.81
55538;BME280;41383;51.418;7.286;2023-01-26T01:29:05;100627.19;;;1.58;72.85
55538;BME280;41383;51.418;7.286;2023-01-26T01:31:32;100631.31;;;1.46;73.88
55538;BME280;41383;51.418;7.286;2023-01-26T01:33:57;100624.44;;;1.43;73.58
55538;BME280;41383;51.418;7.286;2023-01-26T01:36:22;100614.09;;;1.40;74.77
55538;BME280;41383;51.418;7.286;2023-01-26T01:38:48;100612.31;;;1.47;73.94
55538;BME280;41383;51.418;7.286;2023-01-26T01:41:15;100617.16;;;1.52;74.12
55538;BME280;41383;51.418;7.286;2023-01-26T01:43:41;100615.94;;;1.55;74.15
55538;BME280;41383;51.418;7.286;2023-01-26T01:51:18;100628.09;;;1.50;74.73
55538;BME280;41383;51.418;7.286;2023-01-26T01:53:47;100622.50;;;1.37;75.16
55538;BME280;41383;51.418;7.286;2023-01-26T01:56:18;100619.28;;;1.42;75.00
55538;BME280;41383;51.418;7.286;2023-01-26T01:58:47;100620.09;;;1.42;75.43
55538;BME280;41383;51.418;7.286;2023-01-26T02:01:14;100615.84;;;1.48;74.50
55538;BME280;41383;51.418;7.286;2023-01-26T02:03:40;100609.56;;;1.56;74.97
55538;BME280;41383;51.418;7.286;2023-01-26T02:06:15;100607.06;;;1.54;74.26
55538;BME280;41383;51.418;7.286;2023-01-26T02:08:45;100618.28;;;1.58;74.24
55538;BME280;41383;51.418;7.286;2023-01-26T02:11:41;100603.97;;;1.57;74.89
55538;BME280;41383;51.418;7.286;2023-01-26T02:14:10;100602.69;;;1.53;75.43
55538;BME280;41383;51.418;7.286;2023-01-26T02:16:36;100607.13;;;1.61;74.57
55538;BME280;41383;51.418;7.286;2023-01-26T02:19:06;100590.09;;;1.69;74.62
55538;BME280;41383;51.418;7.286;2023-01-26T02:21:37;100585.63;;;1.61;75.09
55538;BME280;41383;51.418;7.286;2023-01-26T02:24:08;100583.44;;;1.65;74.67
55538;BME280;41383;51.418;7.286;2023-01-26T02:26:36;100591.66;;;1.63;74.90
55538;BME280;41383;51.418;7.286;2023-01-26T02:29:04;100589.25;;;1.68;75.18
55538;BME280;41383;51.418;7.286;2023-01-26T02:31:30;100591.31;;;1.66;74.98
55538;BME280;41383;51.418;7.286;2023-01-26T02:33:55;100592.22;;;1.73;74.88
55538;BME280;41383;51.418;7.286;2023-01-26T02:36:27;100583.44;;;1.65;74.81
55538;BME280;41383;51.418;7.286;2023-01-26T02:39:17;100583.69;;;1.70;75.39
55538;BME280;41383;51.418;7.286;2023-01-26T02:41:46;100580.09;;;1.62;74.92
55538;BME280;41383;51.418;7.286;2023-01-26T02:44:31;100582.03;;;1.54;75.37
55538;BME280;41383;51.418;7.286;2023-01-26T02:46:56;100585.91;;;1.51;75.48
55538;BME280;41383;51.418;7.286;2023-01-26T02:49:21;100588.50;;;1.44;75.02
55538;BME280;41383;51.418;7.286;2023-01-26T02:52:06;100589.25;;;1.53;76.12
55538;BME280;41383;51.418;7.286;2023-01-26T02:54:32;100580.72;;;1.49;75.76
55538;BME280;41383;51.418;7.286;2023-01-26T02:57:16;100574.16;;;1.52;75.44
55538;BME280;41383;51.418;7.286;2023-01-26T02:59:41;100577.47;;;1.39;76.02
55538;BME280;41383;51.418;7.286;2023-01-26T03:02:07;100582.56;;;1.49;76.17
55538;BME280;41383;51.418;7.286;2023-01-26T03:04:32;100587.13;;;1.48;75.47
55538;BME280;41383;51.418;7.286;2023-01-26T03:06:57;100581.25;;;1.45;75.54
55538;BME280;41383;51.418;7.286;2023-01-26T03:09:22;100582.91;;;1.31;76.96
55538;BME280;41383;51.418;7.286;2023-01-26T03:11:48;100576.06;;;1.43;76.84
55538;BME280;41383;51.418;7.286;2023-01-26T03:14:14;100580.38;;;1.53;76.26
55538;BME280;41383;51.418;7.286;2023-01-26T03:16:39;100581.81;;;1.55;76.37
55538;BME280;41383;51.418;7.286;2023-01-26T03:19:11;100585.34;;;1.56;75.79
55538;BME280;41383;51.418;7.286;2023-01-26T03:21:56;100584.91;;;1.52;75.89
55538;BME280;41383;51.418;7.286;2023-01-26T03:24:39;100577.09;;;1.42;76.69
55538;BME280;41383;51.418;7.286;2023-01-26T03:27:23;100572.00;;;1.47;76.26
55538;BME280;41383;51.418;7.286;2023-01-26T03:29:52;100571.28;;;1.54;76.74
55538;BME280;41383;51.418;7.286;2023-01-26T03:32:18;100567.81;;;1.45;76.63
55538;BME280;41383;51.418;7.286;2023-01-26T03:34:43;100569.97;;;1.49;76.85
55538;BME280;41383;51.418;7.286;2023-01-26T03:37:09;100565.88;;;1.54;76.07
55538;BME280;41383;51.418;7.286;2023-01-26T03:39:35;100567.28;;;1.49;76.67
55538;BME280;41383;51.418;7.286;2023-01-26T03:42:19;100561.25;;;1.47;76.40
55538;BME280;41383;51.418;7.286;2023-01-26T03:45:04;100567.75;;;1.38;76.82
55538;BME280;41383;51.418;7.286;2023-01-26T03:47:48;100565.88;;;1.54;76.90
55538;BME280;41383;51.418;7.286;2023-01-26T03:50:32;100556.44;;;1.58;76.67
55538;BME280;41383;51.418;7.286;2023-01-26T03:53:22;100567.84;;;1.60;76.74
55538;BME280;41383;51.418;7.286;2023-01-26T03:56:09;100567.38;;;1.56;76.49
55538;BME280;41383;51.418;7.286;2023-01-26T03:58:52;100568.97;;;1.50;76.97
55538;BME280;41383;51.418;7.286;2023-01-26T04:01:19;100567.19;;;1.58;76.34
55538;BME280;41383;51.418;7.286;2023-01-26T04:03:47;100568.31;;;1.48;76.00
55538;BME280;41383;51.418;7.286;2023-01-26T04:06:31;100565.75;;;1.16;77.93
55538;BME280;41383;51.418;7.286;2023-01-26T04:09:15;100573.84;;;1.32;78.46
55538;BME280;41383;51.418;7.286;2023-01-26T04:11:41;100572.94;;;1.39;77.87
55538;BME280;41383;51.418;7.286;2023-01-26T04:14:10;100567.44;;;1.33;77.67
55538;BME280;41383;51.418;7.286;2023-01-26T04:16:53;100570.53;;;1.06;77.69
55538;BME280;41383;51.418;7.286;2023-01-26T04:19:37;100565.66;;;1.10;79.06
55538;BME280;41383;51.418;7.286;2023-01-26T04:22:21;100566.31;;;1.27;79.06
55538;BME280;41383;51.418;7.286;2023-01-26T04:24:47;100562.38;;;1.38;78.48
55538;BME280;41383;51.418;7.286;2023-01-26T04:27:12;100555.88;;;1.47;78.31
55538;BME280;41383;51.418;7.286;2023-01-26T04:29:37;100557.09;;;1.60;78.14
55538;BME280;41383;51.418;7.286;2023-01-26T04:32:03;100552.38;;;1.62;77.61
55538;BME280;41383;51.418;7.286;2023-01-26T04:34:28;100548.47;;;1.49;77.19
55538;BME280;41383;51.418;7.286;2023-01-26T04:36:53;100550.03;;;1.44;78.10
55538;BME280;41383;51.418;7.286;2023-01-26T04:39:19;100555.97;;;1.54;77.75
55538;BME280;41383;51.418;7.286;2023-01-26T04:41:44;100548.28;;;1.66;77.25
55538;BME280;41383;51.418;7.286;2023-01-26T04:44:09;100553.19;;;1.78;77.42
55538;BME280;41383;51.418;7.286;2023-01-26T04:46:35;100549.84;;;1.75;77.03
55538;BME280;41383;51.418;7.286;2023-01-26T04:49:00;100551.53;;;1.77;76.92
55538;BME280;41383;51.418;7.286;2023-01-26T04:51:25;100559.59;;;1.77;76.92
55538;BME280;41383;51.418;7.286;2023-01-26T04:53:52;100554.38;;;1.75;76.81
55538;BME280;41383;51.418;7.286;2023-01-26T04:56:29;100547.91;;;1.69;77.00
55538;BME280;41383;51.418;7.286;2023-01-26T04:58:58;100545.22;;;1.69;77.02
55538;BME280;41383;51.418;7.286;2023-01-26T05:01:24;100558.66;;;1.69;77.17
55538;BME280;41383;51.418;7.286;2023-01-26T05:03:49;100557.00;;;1.68;77.43
55538;BME280;41383;51.418;7.286;2023-01-26T05:06:15;100552.97;;;1.79;76.94
55538;BME280;41383;51.418;7.286;2023-01-26T05:08:41;100547.16;;;1.75;76.50
55538;BME280;41383;51.418;7.286;2023-01-26T05:11:06;100542.06;;;1.81;77.07
55538;BME280;41383;51.418;7.286;2023-01-26T05:13:31;100544.09;;;1.79;76.94
55538;BME280;41383;51.418;7.286;2023-01-26T05:15:59;100550.13;;;1.81;76.54
55538;BME280;41383;51.418;7.286;2023-01-26T05:18:24;100549.19;;;1.73;76.98
55538;BME280;41383;51.418;7.286;2023-01-26T05:20:50;100549.75;;;1.54;77.04
55538;BME280;41383;51.418;7.286;2023-01-26T05:23:15;100553.56;;;1.59;76.88
55538;BME280;41383;51.418;7.286;2023-01-26T05:25:41;100565.16;;;1.60;77.26
55538;BME280;41383;51.418;7.286;2023-01-26T05:28:06;100552.72;;;1.59;77.01
55538;BME280;41383;51.418;7.286;2023-01-26T05:30:31;100551.81;;;1.51;77.22
55538;BME280;41383;51.418;7.286;2023-01-26T05:33:04;100552.72;;;1.59;77.63
55538;BME280;41383;51.418;7.286;2023-01-26T05:35:30;100554.41;;;1.60;77.90
55538;BME280;41383;51.418;7.286;2023-01-26T05:37:56;100553.66;;;1.66;77.72
55538;BME280;41383;51.418;7.286;2023-01-26T05:40:21;100545.22;;;1.69;76.84
55538;BME280;41383;51.418;7.286;2023-01-26T05:42:47;100549.56;;;1.70;77.44
55538;BME280;41383;51.418;7.286;2023-01-26T05:45:12;100556.06;;;1.76;77.03
55538;BME280;41383;51.418;7.286;2023-01-26T05:47:38;100558.00;;;1.82;77.06
55538;BME280;41383;51.418;7.286;2023-01-26T05:50:04;100558.47;;;1.86;76.72
55538;BME280;41383;51.418;7.286;2023-01-26T05:52:30;100556.16;;;1.83;76.97
55538;BME280;41383;51.418;7.286;2023-01-26T05:54:55;100563.28;;;1.75;77.36
55538;BME280;41383;51.418;7.286;2023-01-26T05:57:20;100564.97;;;1.77;76.87
55538;BME280;41383;51.418;7.286;2023-01-26T05:59:46;100567.72;;;1.83;77.35
55538;BME280;41383;51.418;7.286;2023-01-26T06:02:11;100572.47;;;1.81;77.82
55538;BME280;41383;51.418;7.286;2023-01-26T06:04:36;100569.97;;;1.80;76.79
55538;BME280;41383;51.418;7.286;2023-01-26T06:07:03;100572.00;;;1.78;77.33
55538;BME280;41383;51.418;7.286;2023-01-26T06:09:28;100576.09;;;1.73;77.38
55538;BME280;41383;51.418;7.286;2023-01-26T06:11:55;100572.09;;;1.84;77.20
55538;BME280;41383;51.418;7.286;2023-01-26T06:14:20;100576.28;;;1.87;77.26
55538;BME280;41383;51.418;7.286;2023-01-26T06:16:46;100573.03;;;1.77;77.36
55538;BME280;41383;51.418;7.286;2023-01-26T06:19:11;100576.28;;;1.87;77.39
55538;BME280;41383;51.418;7.286;2023-01-26T06:21:36;100573.19;;;1.90;77.11
55538;BME280;41383;51.418;7.286;2023-01-26T06:24:02;100576.84;;;1.82;77.94
55538;BME280;41383;51.418;7.286;2023-01-26T06:26:28;100579.72;;;1.81;77.25
55538;BME280;41383;51.418;7.286;2023-01-26T06:28:53;100584.06;;;1.82;77.85
55538;BME280;41383;51.418;7.286;2023-01-26T06:31:19;100575.44;;;1.86;77.40
55538;BME280;41383;51.418;7.286;2023-01-26T06:33:45;100565.06;;;1.68;77.59
55538;BME280;41383;51.418;7.286;2023-01-26T06:36:13;100573.13;;;1.68;78.33
55538;BME280;41383;51.418;7.286;2023-01-26T06:38:44;100572.75;;;1.71;77.93
55538;BME280;41383;51.418;7.286;2023-01-26T06:41:10;100563.47;;;1.89;77.59
55538;BME280;41383;51.418;7.286;2023-01-26T06:43:35;100570.91;;;1.87;77.87
55538;BME280;41383;51.418;7.286;2023-01-26T06:46:01;100571.91;;;1.86;77.44
55538;BME280;41383;51.418;7.286;2023-01-26T06:48:29;100580.47;;;1.74;77.04
55538;BME280;41383;51.418;7.286;2023-01-26T06:53:50;100577.56;;;1.76;77.79
55538;BME280;41383;51.418;7.286;2023-01-26T06:56:16;100576.53;;;1.77;77.32
55538;BME280;41383;51.418;7.286;2023-01-26T06:58:41;100581.06;;;1.92;77.73
55538;BME280;41383;51.418;7.286;2023-01-26T07:01:09;100573.00;;;1.92;77.53
55538;BME280;41383;51.418;7.286;2023-01-26T07:03:38;100572.94;;;1.85;77.10
55538;BME280;41383;51.418;7.286;2023-01-26T07:06:04;100575.91;;;1.90;77.45
55538;BME280;41383;51.418;7.286;2023-01-26T07:08:29;100568.38;;;1.85;77.41
55538;BME280;41383;51.418;7.286;2023-01-26T07:10:55;100571.16;;;1.77;77.56
55538;BME280;41383;51.418;7.286;2023-01-26T07:13:20;100562.53;;;1.82;77.81
55538;BME280;41383;51.418;7.286;2023-01-26T07:15:46;100573.84;;;1.77;77.97
55538;BME280;41383;51.418;7.286;2023-01-26T07:18:11;100574.41;;;1.88;78.08
55538;BME280;41383;51.418;7.286;2023-01-26T07:20:36;100570.91;;;1.87;77.98
55538;BME280;41383;51.418;7.286;2023-01-26T07:23:01;100572.66;;;1.95;77.87
55538;BME280;41383;51.418;7.286;2023-01-26T07:25:27;100569.22;;;1.86;76.94
55538;BME280;41383;51.418;7.286;2023-01-26T07:27:56;100567.81;;;1.90;77.31
55538;BME280;41383;51.418;7.286;2023-01-26T07:30:22;100571.72;;;1.88;77.40
55538;BME280;41383;51.418;7.286;2023-01-26T07:32:47;100582.94;;;1.91;77.48
55538;BME280;41383;51.418;7.286;2023-01-26T07:35:12;100583.22;;;1.96;77.84
55538;BME280;41383;51.418;7.286;2023-01-26T07:37:37;100579.50;;;1.97;77.28
55538;BME280;41383;51.418;7.286;2023-01-26T07:40:03;100576.94;;;1.89;77.37
55538;BME280;41383;51.418;7.286;2023-01-26T07:42:30;100569.31;;;1.93;77.09
55538;BME280;41383;51.418;7.286;2023-01-26T07:44:55;100576.00;;;1.97;77.07
55538;BME280;41383;51.418;7.286;2023-01-26T07:47:20;100569.13;;;1.94;77.18
55538;BME280;41383;51.418;7.286;2023-01-26T07:49:45;100576.34;;;1.94;77.55
55538;BME280;41383;51.418;7.286;2023-01-26T07:52:11;100566.97;;;2.05;77.35
55538;BME280;41383;51.418;7.286;2023-01-26T07:54:36;100579.13;;;2.01;77.35
55538;BME280;41383;51.418;7.286;2023-01-26T07:57:02;100571.41;;;1.97;77.21
55538;BME280;41383;51.418;7.286;2023-01-26T07:59:27;100567.44;;;1.93;77.25
55538;BME280;41383;51.418;7.286;2023-01-26T08:01:53;100578.47;;;1.83;77.01
55538;BME280;41383;51.418;7.286;2023-01-26T08:04:18;100575.34;;;1.80;77.85
55538;BME280;41383;51.418;7.286;2023-01-26T08:06:43;100574.59;;;1.86;78.23
55538;BME280;41383;51.418;7.286;2023-01-26T08:09:09;100576.44;;;1.85;77.85
55538;BME280;41383;51.418;7.286;2023-01-26T08:11:34;100572.72;;;2.02;77.74
55538;BME280;41383;51.418;7.286;2023-01-26T08:14:00;100572.72;;;2.02;77.24
55538;BME280;41383;51.418;7.286;2023-01-26T08:16:25;100575.50;;;1.93;76.81
55538;BME280;41383;51.418;7.286;2023-01-26T08:18:50;100586.75;;;1.67;77.69
55538;BME280;41383;51.418;7.286;2023-01-26T08:21:17;100585.63;;;1.76;78.57
55538;BME280;41383;51.418;7.286;2023-01-26T08:23:43;100594.06;;;1.88;78.86
55538;BME280;41383;51.418;7.286;2023-01-26T08:26:12;100596.84;;;1.80;77.78
55538;BME280;41383;51.418;7.286;2023-01-26T08:28:38;100595.19;;;1.94;78.20
55538;BME280;41383;51.418;7.286;2023-01-26T08:31:24;100592.47;;;2.09;77.35
55538;BME280;41383;51.418;7.286;2023-01-26T08:33:50;100602.16;;;2.03;77.89
55538;BME280;41383;51.418;7.286;2023-01-26T08:36:17;100605.94;;;1.94;77.30
55538;BME280;41383;51.418;7.286;2023-01-26T08:38:43;100608.72;;;2.01;77.87
55538;BME280;41383;51.418;7.286;2023-01-26T08:41:08;100603.69;;;1.97;77.75
55538;BME280;41383;51.418;7.286;2023-01-26T08:43:34;100613.72;;;2.04;77.75
55538;BME280;41383;51.418;7.286;2023-01-26T08:45:59;100607.53;;;2.03;77.93
55538;BME280;41383;51.418;7.286;2023-01-26T08:48:25;100612.41;;;2.00;77.95
55538;BME280;41383;51.418;7.286;2023-01-26T08:50:54;100610.88;;;2.05;78.25
55538;BME280;41383;51.418;7.286;2023-01-26T08:53:21;100613.91;;;2.02;77.57
55538;BME280;41383;51.418;7.286;2023-01-26T08:55:46;100617.16;;;2.13;77.84
55538;BME280;41383;51.418;7.286;2023-01-26T08:58:11;100620.69;;;1.83;77.86
55538;BME280;41383;51.418;7.286;2023-01-26T09:00:36;100616.78;;;1.85;78.24
55538;BME280;41383;51.418;7.286;2023-01-26T09:03:03;100617.63;;;2.01;78.51
55538;BME280;41383;51.418;7.286;2023-01-26T09:05:35;100615.09;;;2.00;78.39
55538;BME280;41383;51.418;7.286;2023-01-26T09:08:02;100612.25;;;2.01;78.20
55538;BME280;41383;51.418;7.286;2023-01-26T09:10:27;100620.31;;;2.01;78.24
55538;BME280;41383;51.418;7.286;2023-01-26T09:12:53;100617.59;;;2.16;77.95
55538;BME280;41383;51.418;7.286;2023-01-26T09:15:18;100622.91;;;2.09;77.47
55538;BME280;41383;51.418;7.286;2023-01-26T09:17:43;100614.66;;;2.11;78.11
55538;BME280;41383;51.418;7.286;2023-01-26T09:20:10;100610.56;;;2.15;78.83
55538;BME280;41383;51.418;7.286;2023-01-26T09:22:35;100608.59;;;2.24;78.32
55538;BME280;41383;51.418;7.286;2023-01-26T09:25:01;100609.06;;;2.28;78.16
55538;BME280;41383;51.418;7.286;2023-01-26T09:27:27;100614.91;;;2.31;77.83
55538;BME280;41383;51.418;7.286;2023-01-26T09:29:52;100610.63;;;2.22;77.78
55538;BME280;41383;51.418;7.286;2023-01-26T09:32:18;100618.69;;;2.37;77.78
55538;BME280;41383;51.418;7.286;2023-01-26T09:34:43;100629.50;;;2.07;77.56
55538;BME280;41383;51.418;7.286;2023-01-26T09:37:09;100637.75;;;2.05;78.78
55538;BME280;41383;51.418;7.286;2023-01-26T09:39:34;100637.00;;;1.96;79.22
55538;BME280;41383;51.418;7.286;2023-01-26T09:44:48;100629.78;;;1.97;79.60
55538;BME280;41383;51.418;7.286;2023-01-26T09:47:30;100619.75;;;2.06;78.99
55538;BME280;41383;51.418;7.286;2023-01-26T09:50:11;100615.56;;;2.18;79.02
55538;BME280;41383;51.418;7.286;2023-01-26T09:52:53;100618.53;;;2.24;78.96
55538;BME280;41383;51.418;7.286;2023-01-26T09:55:23;100622.06;;;2.09;79.25
55538;BME280;41383;51.418;7.286;2023-01-26T09:57:52;100615.31;;;2.13;79.33
55538;BME280;41383;51.418;7.286;2023-01-26T10:00:56;100606.09;;;2.22;79.66
55538;BME280;41383;51.418;7.286;2023-01-26T10:03:44;100610.19;;;2.18;79.17
55538;BME280;41383;51.418;7.286;2023-01-26T10:06:23;100609.44;;;2.25;79.44
55538;BME280;41383;51.418;7.286;2023-01-26T10:08:54;100609.13;;;2.35;78.70
55538;BME280;41383;51.418;7.286;2023-01-26T10:11:38;100600.41;;;2.32;78.85
55538;BME280;41383;51.418;7.286;2023-01-26T10:14:17;100613.16;;;2.24;79.58
55538;BME280;41383;51.418;7.286;2023-01-26T10:16:46;100612.38;;;2.30;79.59
55538;BME280;41383;51.418;7.286;2023-01-26T10:21:48;100599.94;;;2.29;79.21
55538;BME280;41383;51.418;7.286;2023-01-26T10:24:19;100595.47;;;2.36;79.37
55538;BME280;41383;51.418;7.286;2023-01-26T10:26:46;100594.06;;;2.40;78.99
55538;BME280;41383;51.418;7.286;2023-01-26T10:29:14;100590.38;;;2.41;78.77
55538;BME280;41383;51.418;7.286;2023-01-26T10:31:40;100592.03;;;2.42;79.19
55538;BME280;41383;51.418;7.286;2023-01-26T10:34:14;100591.25;;;2.49;78.82
55538;BME280;41383;51.418;7.286;2023-01-26T10:36:43;100597.28;;;2.51;78.61
55538;BME280;41383;51.418;7.286;2023-01-26T10:39:10;100591.25;;;2.49;78.92
55538;BME280;41383;51.418;7.286;2023-01-26T10:41:37;100594.16;;;2.47;79.14
55538;BME280;41383;51.418;7.286;2023-01-26T10:46:36;100594.00;;;2.33;79.59
55538;BME280;41383;51.418;7.286;2023-01-26T10:51:37;100587.53;;;2.28;79.57
55538;BME280;41383;51.418;7.286;2023-01-26T10:54:23;100585.63;;;2.43;80.02
55538;BME280;41383;51.418;7.286;2023-01-26T10:56:51;100581.91;;;2.44;79.30
55538;BME280;41383;51.418;7.286;2023-01-26T11:04:38;100587.53;;;2.28;80.30
55538;BME280;41383;51.418;7.286;2023-01-26T11:07:26;100593.50;;;2.08;80.59
55538;BME280;41383;51.418;7.286;2023-01-26T11:09:52;100577.53;;;2.21;80.65
55538;BME280;41383;51.418;7.286;2023-01-26T11:12:19;100576.50;;;2.22;80.55
55538;BME280;41383;51.418;7.286;2023-01-26T11:15:03;100562.16;;;2.37;81.32
55538;BME280;41383;51.418;7.286;2023-01-26T11:17:46;100570.44;;;2.36;80.72
55538;BME280;41383;51.418;7.286;2023-01-26T11:20:27;100576.19;;;2.54;80.08
55538;BME280;41383;51.418;7.286;2023-01-26T11:23:10;100573.69;;;2.31;80.40
55538;BME280;41383;51.418;7.286;2023-01-26T11:29:06;100564.72;;;2.24;80.81
55538;BME280;41383;51.418;7.286;2023-01-26T11:32:03;100563.88;;;2.23;80.87
55538;BME280;41383;51.418;7.286;2023-01-26T11:46:15;100549.34;;;2.39;82.53
55538;BME280;41383;51.418;7.286;2023-01-26T11:51:42;100555.47;;;2.48;81.67
55538;BME280;41383;51.418;7.286;2023-01-26T11:54:27;100553.97;;;2.67;81.16
55538;BME280;41383;51.418;7.286;2023-01-26T11:57:17;100560.63;;;2.50;81.38
55538;BME280;41383;51.418;7.286;2023-01-26T11:59:57;100562.59;;;2.19;83.40
55538;BME280;41383;51.418;7.286;2023-01-26T12:02:32;100566.66;;;2.15;83.26
55538;BME280;41383;51.418;7.286;2023-01-26T12:05:21;100572.78;;;2.24;83.39
55538;BME280;41383;51.418;7.286;2023-01-26T12:07:54;100559.06;;;2.18;83.61
55538;BME280;41383;51.418;7.286;2023-01-26T12:10:26;100551.44;;;2.22;84.58
55538;BME280;41383;51.418;7.286;2023-01-26T12:13:04;100545.38;;;2.35;84.70
55538;BME280;41383;51.418;7.286;2023-01-26T12:15:37;100551.06;;;2.47;82.81
55538;BME280;41383;51.418;7.286;2023-01-26T12:20:46;100535.75;;;2.70;82.26
55538;BME280;41383;51.418;7.286;2023-01-26T12:25:54;100525.69;;;2.78;81.58
55538;BME280;41383;51.418;7.286;2023-01-26T12:31:13;100521.28;;;2.49;82.91
55538;BME280;41383;51.418;7.286;2023-01-26T12:33:41;100523.53;;;2.08;83.25
55538;BME280;41383;51.418;7.286;2023-01-26T12:39:07;100515.31;;;2.53;84.01
55538;BME280;41383;51.418;7.286;2023-01-26T12:44:40;100511.53;;;2.70;81.93
55538;BME280;41383;51.418;7.286;2023-01-26T12:47:17;100503.78;;;2.60;83.14
55538;BME280;41383;51.418;7.286;2023-01-26T12:49:53;100502.66;;;2.76;82.99
55538;BME280;41383;51.418;7.286;2023-01-26T12:52:26;100503.03;;;2.73;82.80
55538;BME280;41383;51.418;7.286;2023-01-26T12:55:10;100502.72;;;2.83;81.87
55538;BME280;41383;51.418;7.286;2023-01-26T12:57:44;100497.75;;;2.58;82.74
55538;BME280;41383;51.418;7.286;2023-01-26T13:02:45;100489.06;;;2.84;82.71
55538;BME280;41383;51.418;7.286;2023-01-26T13:05:33;100491.75;;;2.84;82.12
55538;BME280;41383;51.418;7.286;2023-01-26T13:10:57;100494.16;;;3.01;81.85
55538;BME280;41383;51.418;7.286;2023-01-26T13:18:51;100493.72;;;2.47;82.83
55538;BME280;41383;51.418;7.286;2023-01-26T13:26:50;100499.94;;;2.98;82.16
55538;BME280;41383;51.418;7.286;2023-01-26T13:29:36;100503.69;;;3.03;82.17
55538;BME280;41383;51.418;7.286;2023-01-26T13:35:08;100497.94;;;3.07;82.44
55538;BME280;41383;51.418;7.286;2023-01-26T13:37:54;100496.88;;;2.79;82.53
55538;BME280;41383;51.418;7.286;2023-01-26T13:40:33;100496.03;;;3.00;83.04
55538;BME280;41383;51.418;7.286;2023-01-26T13:43:07;100495.31;;;2.91;82.68
55538;BME280;41383;51.418;7.286;2023-01-26T13:46:00;100496.22;;;2.99;83.10
55538;BME280;41383;51.418;7.286;2023-01-26T13:48:38;100497.28;;;2.76;83.37
55538;BME280;41383;51.418;7.286;2023-01-26T13:51:07;100494.88;;;2.88;83.75
55538;BME280;41383;51.418;7.286;2023-01-26T13:53:36;100484.25;;;3.08;82.79
55538;BME280;41383;51.418;7.286;2023-01-26T13:56:04;100496.31;;;3.12;82.39
55538;BME280;41383;51.418;7.286;2023-01-26T13:58:31;100488.03;;;3.14;82.00
55538;BME280;41383;51.418;7.286;2023-01-26T14:01:05;100489.56;;;2.95;82.94
55538;BME280;41383;51.418;7.286;2023-01-26T14:03:32;100495.81;;;3.02;83.09
55538;BME280;41383;51.418;7.286;2023-01-26T14:06:07;100490.44;;;3.02;83.19
55538;BME280;41383;51.418;7.286;2023-01-26T14:08:35;100498.38;;;3.10;82.82
55538;BME280;41383;51.418;7.286;2023-01-26T14:11:03;100500.84;;;3.12;82.25
55538;BME280;41383;51.418;7.286;2023-01-26T14:13:35;100494.53;;;2.98;82.74
55538;BME280;41383;51.418;7.286;2023-01-26T14:16:03;100502.47;;;3.06;82.63
55538;BME280;41383;51.418;7.286;2023-01-26T14:18:29;100487.59;;;3.10;82.79
55538;BME280;41383;51.418;7.286;2023-01-26T14:21:13;100499.22;;;3.18;82.85
55538;BME280;41383;51.418;7.286;2023-01-26T14:23:40;100497.16;;;3.20;82.29
55538;BME280;41383;51.418;7.286;2023-01-26T14:26:15;100489.50;;;3.17;82.59
55538;BME280;41383;51.418;7.286;2023-01-26T14:28:43;100498.44;;;3.24;82.32